createdAt,value
2023-10-23T00:01:50.785Z,18.48
2023-10-23T00:04:53.732Z,18.45
2023-10-23T00:07:56.569Z,18.47
2023-10-23T00:10:59.364Z,18.50
2023-10-23T00:14:03.664Z,18.55
2023-10-23T00:17:06.644Z,18.53
2023-10-23T00:20:10.609Z,18.58
2023-10-23T00:23:13.369Z,18.60
2023-10-23T00:26:16.713Z,18.62
2023-10-23T00:29:21.092Z,18.65
2023-10-23T00:32:23.931Z,18.68
2023-10-23T00:35:26.783Z,18.66
2023-10-23T00:38:30.166Z,18.68
2023-10-23T00:41:32.964Z,18.68
2023-10-23T00:44:37.342Z,18.69
2023-10-23T00:47:40.324Z,18.67
2023-10-23T00:50:43.321Z,18.70
2023-10-23T00:53:46.399Z,18.71
2023-10-23T00:56:49.701Z,18.70
2023-10-23T00:59:54.042Z,18.70
2023-10-23T01:02:56.909Z,18.71
2023-10-23T01:06:00.058Z,18.71
2023-10-23T01:09:02.807Z,18.70
2023-10-23T01:12:06.010Z,18.71
2023-10-23T01:15:10.812Z,18.71
2023-10-23T01:18:13.673Z,18.68
2023-10-23T01:21:16.632Z,18.69
2023-10-23T01:24:21.188Z,18.69
2023-10-23T01:27:25.394Z,18.72
2023-10-23T01:30:29.651Z,18.71
2023-10-23T01:33:32.554Z,18.72
2023-10-23T01:36:36.881Z,18.71
2023-10-23T01:39:39.884Z,18.71
2023-10-23T01:42:44.676Z,18.73
2023-10-23T01:45:47.632Z,18.70
2023-10-23T01:48:50.563Z,18.73
2023-10-23T01:51:53.471Z,18.74
2023-10-23T01:54:56.521Z,18.74
2023-10-23T01:58:00.772Z,18.74
2023-10-23T02:01:03.816Z,18.72
2023-10-23T02:04:07.303Z,18.72
2023-10-23T02:07:10.289Z,18.72
2023-10-23T02:10:13.134Z,18.73
2023-10-23T02:13:17.326Z,18.74
2023-10-23T02:16:20.190Z,18.72
2023-10-23T02:19:23.109Z,18.73
2023-10-23T02:22:25.958Z,18.73
2023-10-23T02:25:28.795Z,18.76
2023-10-23T02:28:33.111Z,18.77
2023-10-23T02:31:37.724Z,18.75
2023-10-23T02:34:40.903Z,18.75
2023-10-23T02:37:43.775Z,18.75
2023-10-23T02:40:52.460Z,18.73
2023-10-23T02:43:56.595Z,18.74
2023-10-23T02:46:59.509Z,18.72
2023-10-23T02:50:02.429Z,18.75
2023-10-23T02:53:06.755Z,18.76
2023-10-23T02:56:12.079Z,18.75
2023-10-23T02:59:19.151Z,18.77
2023-10-23T03:02:21.955Z,18.77
2023-10-23T03:05:24.792Z,18.77
2023-10-23T03:08:27.848Z,18.76
2023-10-23T03:11:30.760Z,18.77
2023-10-23T03:14:35.016Z,18.76
2023-10-23T03:17:37.841Z,18.76
2023-10-23T03:20:41.336Z,18.77
2023-10-23T03:23:44.120Z,18.75
2023-10-23T03:26:47.037Z,18.75
2023-10-23T03:29:51.316Z,18.76
2023-10-23T03:32:54.169Z,18.77
2023-10-23T03:35:57.027Z,18.74
2023-10-23T03:38:59.930Z,18.78
2023-10-23T03:42:02.789Z,18.78
2023-10-23T03:45:07.539Z,18.74
2023-10-23T03:48:10.384Z,18.74
2023-10-23T03:51:13.187Z,18.75
2023-10-23T03:54:15.962Z,18.76
2023-10-23T03:57:18.766Z,18.78
2023-10-23T04:00:22.978Z,18.75
2023-10-23T04:03:25.896Z,18.75
2023-10-23T04:06:28.816Z,18.77
2023-10-23T04:09:31.715Z,18.76
2023-10-23T04:12:34.555Z,18.76
2023-10-23T04:15:38.855Z,18.74
2023-10-23T04:18:41.670Z,18.75
2023-10-23T04:21:44.545Z,18.76
2023-10-23T04:24:48.563Z,18.75
2023-10-23T04:27:51.579Z,18.74
2023-10-23T04:30:56.765Z,18.76
2023-10-23T04:33:59.701Z,18.73
2023-10-23T04:37:02.651Z,18.76
2023-10-23T04:40:05.947Z,18.77
2023-10-23T04:43:08.779Z,18.79
2023-10-23T04:46:13.065Z,18.76
2023-10-23T04:49:15.981Z,18.79
2023-10-23T04:52:19.362Z,18.79
2023-10-23T04:55:22.171Z,18.78
2023-10-23T04:58:25.047Z,18.78
2023-10-23T05:01:29.401Z,18.79
2023-10-23T05:04:32.637Z,18.79
2023-10-23T05:07:35.605Z,18.77
2023-10-23T05:10:38.460Z,18.77
2023-10-23T05:13:41.287Z,18.78
2023-10-23T05:16:46.535Z,18.78
2023-10-23T05:19:49.404Z,18.80
2023-10-23T05:22:52.230Z,18.77
2023-10-23T05:25:55.145Z,18.80
2023-10-23T05:28:57.964Z,18.78
2023-10-23T05:32:02.150Z,18.79
2023-10-23T05:35:05.338Z,18.78
2023-10-23T05:38:08.358Z,18.80
2023-10-23T05:41:11.292Z,18.82
2023-10-23T05:44:14.394Z,18.87
2023-10-23T05:47:18.590Z,18.89
2023-10-23T05:50:21.533Z,18.82
2023-10-23T05:53:24.372Z,18.81
2023-10-23T05:56:27.207Z,18.84
2023-10-23T05:59:30.218Z,18.81
2023-10-23T06:02:34.401Z,18.82
2023-10-23T06:05:41.144Z,18.82
2023-10-23T06:08:44.007Z,18.82
2023-10-23T06:11:46.872Z,18.83
2023-10-23T06:14:49.681Z,18.81
2023-10-23T06:17:53.884Z,18.82
2023-10-23T06:20:58.881Z,18.82
2023-10-23T06:24:01.935Z,18.82
2023-10-23T06:27:05.123Z,18.82
2023-10-23T06:30:08.441Z,18.82
2023-10-23T06:33:12.651Z,18.84
2023-10-23T06:36:15.436Z,18.85
2023-10-23T06:39:18.219Z,18.83
2023-10-23T06:42:21.137Z,18.85
2023-10-23T06:45:25.967Z,18.82
2023-10-23T06:48:41.072Z,18.85
2023-10-23T06:51:44.000Z,18.83
2023-10-23T06:54:46.887Z,18.85
2023-10-23T06:57:49.661Z,18.86
2023-10-23T07:00:52.509Z,18.84
2023-10-23T07:03:56.824Z,18.85
2023-10-23T07:07:08.268Z,18.86
2023-10-23T07:10:21.926Z,18.89
2023-10-23T07:13:24.693Z,18.89
2023-10-23T07:16:27.945Z,18.87
2023-10-23T07:19:32.367Z,18.89
2023-10-23T07:22:35.256Z,18.89
2023-10-23T07:25:38.102Z,18.90
2023-10-23T07:28:40.915Z,18.89
2023-10-23T07:31:43.835Z,18.89
2023-10-23T07:34:48.065Z,18.89
2023-10-23T07:37:50.912Z,18.90
2023-10-23T07:40:53.777Z,18.92
2023-10-23T07:43:56.529Z,18.93
2023-10-23T07:46:59.403Z,18.93
2023-10-23T07:50:05.967Z,18.95
2023-10-23T07:53:08.829Z,18.99
2023-10-23T07:56:13.777Z,18.99
2023-10-23T07:59:18.735Z,18.98
2023-10-23T08:02:21.703Z,18.97
2023-10-23T08:05:25.993Z,18.96
2023-10-23T08:08:28.848Z,18.98
2023-10-23T08:11:31.722Z,18.98
2023-10-23T08:14:34.562Z,18.95
2023-10-23T08:17:42.450Z,18.99
2023-10-23T08:20:47.147Z,19.00
2023-10-23T08:23:54.182Z,18.98
2023-10-23T08:26:57.266Z,18.99
2023-10-23T08:30:00.143Z,18.98
2023-10-23T08:33:03.103Z,19.00
2023-10-23T08:36:07.659Z,19.00
2023-10-23T08:39:10.480Z,19.07
2023-10-23T08:42:13.303Z,19.06
2023-10-23T08:45:16.964Z,19.05
2023-10-23T08:48:19.783Z,19.04
2023-10-23T08:51:24.055Z,19.07
2023-10-23T08:54:28.142Z,19.07
2023-10-23T08:57:31.362Z,19.06
2023-10-23T09:00:34.881Z,19.08
2023-10-23T09:04:02.820Z,19.07
2023-10-23T09:07:02.132Z,19.08
2023-10-23T09:10:05.250Z,19.08
2023-10-23T09:13:08.077Z,19.11
2023-10-23T09:16:11.539Z,19.12
2023-10-23T09:19:24.768Z,19.11
2023-10-23T09:22:31.202Z,19.13
2023-10-23T09:25:34.042Z,19.13
2023-10-23T09:28:36.874Z,19.15
2023-10-23T09:31:42.076Z,19.14
2023-10-23T09:34:45.892Z,19.16
2023-10-23T09:37:50.196Z,19.16
2023-10-23T09:40:53.034Z,19.15
2023-10-23T09:43:57.304Z,19.14
2023-10-23T09:47:00.890Z,19.15
2023-10-23T09:50:05.113Z,19.22
2023-10-23T09:53:11.540Z,19.20
2023-10-23T09:56:14.946Z,19.19
2023-10-23T09:59:18.763Z,19.20
2023-10-23T10:02:26.105Z,19.25
2023-10-23T10:05:32.699Z,19.24
2023-10-23T10:08:39.613Z,19.24
2023-10-23T10:11:44.449Z,19.23
2023-10-23T10:14:48.392Z,19.27
2023-10-23T10:17:51.719Z,19.27
2023-10-23T10:20:58.086Z,19.29
2023-10-23T10:24:04.920Z,19.27
2023-10-23T10:27:08.178Z,19.32
2023-10-23T10:30:31.911Z,19.34
2023-10-23T10:34:27.601Z,19.40
2023-10-23T10:37:01.119Z,19.42
2023-10-23T10:40:07.512Z,19.43
2023-10-23T10:43:10.747Z,19.46
2023-10-23T10:46:19.112Z,19.48
2023-10-23T10:49:22.006Z,19.52
2023-10-23T10:52:29.719Z,19.48
2023-10-23T10:55:34.547Z,19.52
2023-10-23T10:58:38.791Z,19.57
2023-10-23T11:01:41.728Z,19.54
2023-10-23T11:04:44.742Z,19.54
2023-10-23T11:07:48.481Z,19.53
2023-10-23T11:10:52.671Z,19.53
2023-10-23T11:13:57.501Z,19.51
2023-10-23T11:17:00.625Z,19.52
2023-10-23T11:20:07.569Z,19.51
2023-10-23T11:23:10.501Z,19.51
2023-10-23T11:26:14.769Z,19.49
2023-10-23T11:29:18.306Z,19.49
2023-10-23T11:32:21.038Z,19.49
2023-10-23T11:35:23.973Z,19.51
2023-10-23T11:38:28.650Z,19.50
2023-10-23T11:41:34.283Z,19.54
2023-10-23T11:44:37.106Z,19.56
2023-10-23T11:47:40.160Z,19.47
2023-10-23T11:50:43.776Z,19.48
2023-10-23T11:53:48.188Z,19.58
2023-10-23T11:56:52.834Z,19.58
2023-10-23T11:59:58.275Z,19.55
2023-10-23T12:03:01.190Z,19.56
2023-10-23T12:06:04.842Z,19.56
2023-10-23T12:09:08.660Z,19.58
2023-10-23T12:12:13.769Z,19.58
2023-10-23T12:15:17.437Z,19.49
2023-10-23T12:18:20.328Z,19.54
2023-10-23T12:21:23.187Z,19.64
2023-10-23T12:24:25.961Z,19.64
2023-10-23T12:27:30.156Z,19.64
2023-10-23T12:30:33.074Z,19.67
2023-10-23T12:33:38.461Z,19.69
2023-10-23T12:36:41.511Z,19.71
2023-10-23T12:39:44.296Z,19.75
2023-10-23T12:42:48.531Z,19.86
2023-10-23T12:45:51.536Z,19.84
2023-10-23T12:48:54.396Z,20.31
2023-10-23T12:51:57.210Z,20.62
2023-10-23T12:55:00.293Z,20.11
2023-10-23T12:58:05.221Z,20.08
2023-10-23T13:01:08.148Z,19.99
2023-10-23T13:04:11.084Z,19.91
2023-10-23T13:07:14.020Z,19.88
2023-10-23T13:10:17.422Z,19.86
2023-10-23T13:13:21.732Z,19.87
2023-10-23T13:16:24.642Z,19.81
2023-10-23T13:19:30.610Z,19.81
2023-10-23T13:22:35.603Z,19.80
2023-10-23T13:25:41.935Z,19.80
2023-10-23T13:28:48.792Z,19.79
2023-10-23T13:31:53.262Z,19.80
2023-10-23T13:34:56.180Z,19.76
2023-10-23T13:37:59.364Z,19.78
2023-10-23T13:41:03.717Z,19.79
2023-10-23T13:44:08.073Z,19.75
2023-10-23T13:47:11.028Z,19.73
2023-10-23T13:50:13.900Z,19.71
2023-10-23T13:53:16.720Z,19.74
2023-10-23T13:56:20.604Z,19.74
2023-10-23T13:59:24.776Z,19.73
2023-10-23T14:02:27.752Z,19.74
2023-10-23T14:05:30.697Z,19.73
2023-10-23T14:09:40.824Z,19.70
2023-10-23T14:12:00.082Z,19.73
2023-10-23T14:15:08.767Z,19.71
2023-10-23T14:18:11.892Z,19.70
2023-10-23T14:21:15.906Z,19.73
2023-10-23T14:24:21.328Z,19.74
2023-10-23T14:27:24.215Z,19.74
2023-10-23T14:30:28.427Z,19.71
2023-10-23T14:33:31.225Z,19.74
2023-10-23T14:36:34.034Z,19.71
2023-10-23T14:39:36.893Z,19.73
2023-10-23T14:42:40.916Z,19.70
2023-10-23T14:45:45.128Z,19.70
2023-10-23T14:48:48.180Z,19.73
2023-10-23T14:51:51.920Z,19.73
2023-10-23T14:54:55.193Z,19.71
2023-10-23T14:57:58.066Z,19.70
2023-10-23T15:01:02.381Z,19.70
2023-10-23T15:04:05.539Z,19.69
2023-10-23T15:07:08.450Z,19.70
2023-10-23T15:10:11.569Z,19.70
2023-10-23T15:13:14.470Z,19.69
2023-10-23T15:16:18.912Z,19.69
2023-10-23T15:19:21.850Z,19.70
2023-10-23T15:22:24.792Z,19.68
2023-10-23T15:25:27.846Z,19.71
2023-10-23T15:28:31.732Z,19.68
2023-10-23T15:31:37.029Z,19.71
2023-10-23T15:34:40.034Z,19.68
2023-10-23T15:37:44.054Z,19.69
2023-10-23T15:40:46.896Z,19.70
2023-10-23T15:43:52.514Z,19.70
2023-10-23T15:46:56.781Z,19.70
2023-10-23T15:50:00.016Z,19.68
2023-10-23T15:53:03.841Z,19.71
2023-10-23T15:56:06.995Z,19.69
2023-10-23T15:59:09.862Z,19.74
2023-10-23T16:02:14.765Z,19.71
2023-10-23T16:05:17.724Z,19.70
2023-10-23T16:08:20.568Z,19.67
2023-10-23T16:11:23.358Z,19.73
2023-10-23T16:14:26.661Z,19.78
2023-10-23T16:17:30.825Z,19.79
2023-10-23T16:20:34.706Z,19.80
2023-10-23T16:23:37.504Z,19.85
2023-10-23T16:26:40.374Z,19.88
2023-10-23T16:29:43.157Z,19.86
2023-10-23T16:32:47.398Z,19.90
2023-10-23T16:35:52.978Z,19.89
2023-10-23T16:38:56.201Z,19.87
2023-10-23T16:41:59.045Z,19.86
2023-10-23T16:45:02.422Z,19.87
2023-10-23T16:48:07.072Z,19.88
2023-10-23T16:51:09.931Z,19.87
2023-10-23T16:54:14.075Z,19.88
2023-10-23T16:57:16.853Z,19.89
2023-10-23T17:00:19.675Z,19.93
2023-10-23T17:03:26.222Z,19.92
2023-10-23T17:06:29.238Z,19.96
2023-10-23T17:09:32.319Z,19.96
2023-10-23T17:12:35.381Z,19.92
2023-10-23T17:15:42.567Z,19.92
2023-10-23T17:18:47.472Z,19.90
2023-10-23T17:21:50.306Z,19.89
2023-10-23T17:24:53.109Z,19.91
2023-10-23T17:27:55.984Z,19.91
2023-10-23T17:31:00.475Z,19.91
2023-10-23T17:34:05.136Z,19.88
2023-10-23T17:37:08.114Z,19.92
2023-10-23T17:40:12.580Z,19.99
2023-10-23T17:46:37.261Z,19.91
2023-10-23T17:49:41.801Z,19.86
2023-10-23T17:52:45.079Z,19.93
2023-10-23T17:55:48.073Z,19.94
2023-10-23T17:58:55.546Z,19.93
2023-10-23T18:01:58.429Z,19.96
2023-10-23T18:05:02.748Z,20.01
2023-10-23T18:08:05.744Z,20.04
2023-10-23T18:11:09.634Z,19.99
2023-10-23T18:14:13.434Z,19.95
2023-10-23T18:17:16.325Z,19.98
2023-10-23T18:20:20.616Z,20.00
2023-10-23T18:23:23.517Z,19.96
2023-10-23T18:26:26.716Z,19.97
2023-10-23T18:29:30.810Z,19.97
2023-10-23T18:32:33.644Z,19.97
2023-10-23T18:35:38.369Z,19.98
2023-10-23T18:38:42.591Z,19.99
2023-10-23T18:41:45.529Z,19.99
2023-10-23T18:44:48.351Z,20.03
2023-10-23T18:47:51.269Z,20.03
2023-10-23T18:51:01.997Z,20.02
2023-10-23T18:54:04.998Z,20.00
2023-10-23T18:57:07.809Z,20.01
2023-10-23T19:00:11.162Z,19.99
2023-10-23T19:03:14.050Z,20.01
2023-10-23T19:06:18.714Z,20.01
2023-10-23T19:09:21.520Z,20.01
2023-10-23T19:12:24.912Z,20.06
2023-10-23T19:15:27.795Z,20.07
2023-10-23T19:18:31.619Z,20.04
2023-10-23T19:21:35.974Z,20.04
2023-10-23T19:24:38.987Z,20.05
2023-10-23T19:27:42.020Z,20.02
2023-10-23T19:30:47.851Z,20.03
2023-10-23T19:33:51.021Z,20.05
2023-10-23T19:36:55.565Z,20.04
2023-10-23T19:39:59.368Z,20.04
2023-10-23T19:43:08.331Z,20.04
2023-10-23T19:46:12.066Z,20.05
2023-10-23T19:49:15.270Z,20.05
2023-10-23T19:52:20.178Z,20.06
2023-10-23T19:55:42.679Z,20.05
2023-10-23T19:58:46.047Z,20.05
2023-10-23T20:01:48.939Z,20.06
2023-10-23T20:04:51.907Z,20.07
2023-10-23T20:07:56.256Z,20.08
2023-10-23T20:10:59.210Z,20.11
2023-10-23T20:14:02.137Z,20.08
2023-10-23T20:17:05.281Z,20.13
2023-10-23T20:20:09.901Z,20.14
2023-10-23T20:23:14.614Z,20.15
2023-10-23T20:26:17.662Z,20.13
2023-10-23T20:29:20.584Z,20.12
2023-10-23T20:32:23.425Z,20.11
2023-10-23T20:35:26.393Z,20.08
2023-10-23T20:38:30.624Z,20.12
2023-10-23T20:41:33.537Z,20.09
2023-10-23T20:44:36.282Z,20.18
2023-10-23T20:47:39.373Z,20.14
2023-10-23T20:50:42.264Z,20.15
2023-10-23T20:53:47.008Z,20.16
2023-10-23T20:56:49.829Z,20.17
2023-10-23T20:59:52.617Z,20.22
2023-10-23T21:02:55.539Z,20.19
2023-10-23T21:06:00.418Z,20.13
2023-10-23T21:09:05.944Z,20.26
2023-10-23T21:12:08.986Z,20.27
2023-10-23T21:15:12.045Z,20.21
2023-10-23T21:18:14.841Z,20.20
2023-10-23T21:21:17.747Z,20.20
2023-10-23T21:24:21.914Z,20.21
2023-10-23T21:27:24.864Z,20.24
2023-10-23T21:30:27.659Z,20.22
2023-10-23T21:33:30.657Z,20.21
2023-10-23T21:36:33.454Z,20.18
2023-10-23T21:39:37.587Z,20.18
2023-10-23T21:42:41.254Z,20.18
2023-10-23T21:45:44.254Z,20.19
2023-10-23T21:48:47.011Z,20.30
2023-10-23T21:51:50.034Z,20.24
2023-10-23T21:54:54.633Z,20.22
2023-10-23T21:58:06.204Z,20.17
2023-10-23T22:01:09.640Z,20.14
2023-10-23T22:04:12.921Z,20.18
2023-10-23T22:07:16.085Z,20.16
2023-10-23T22:10:20.902Z,20.16
2023-10-23T22:13:24.058Z,20.15
2023-10-23T22:16:26.950Z,20.17
2023-10-23T22:19:32.953Z,20.16
2023-10-23T22:22:35.941Z,20.17
2023-10-23T22:25:40.393Z,20.16
2023-10-23T22:28:43.231Z,20.17
2023-10-23T22:31:46.461Z,20.15
2023-10-23T22:34:49.390Z,20.15
2023-10-23T22:38:06.532Z,20.15
2023-10-23T22:41:13.302Z,20.17
2023-10-23T22:44:16.057Z,20.17
2023-10-23T22:47:18.981Z,20.17
2023-10-23T22:50:22.298Z,20.11
2023-10-23T22:53:25.638Z,20.18
2023-10-23T22:56:32.596Z,20.18
2023-10-23T22:59:35.940Z,20.17
2023-10-23T23:02:39.156Z,20.18
2023-10-23T23:05:42.672Z,20.17
2023-10-23T23:08:47.535Z,20.18
2023-10-23T23:11:52.459Z,20.20
2023-10-23T23:14:55.655Z,20.26
2023-10-23T23:18:00.422Z,20.21
2023-10-23T23:21:05.181Z,20.20
2023-10-23T23:24:08.483Z,20.19
2023-10-23T23:27:12.682Z,20.18
2023-10-23T23:30:16.585Z,20.17
2023-10-23T23:33:19.450Z,20.16
2023-10-23T23:36:22.254Z,20.14
2023-10-23T23:39:25.043Z,20.16
2023-10-23T23:42:29.413Z,20.16
2023-10-23T23:45:32.260Z,20.16
2023-10-23T23:48:35.136Z,20.15
2023-10-23T23:51:38.018Z,20.16
2023-10-23T23:54:40.904Z,20.32
2023-10-23T23:57:45.165Z,20.19
